createdAt,value
2018-06-19T00:00:45.754Z,17.42
2018-06-19T00:01:45.752Z,17.38
2018-06-19T00:02:45.745Z,17.39
2018-06-19T00:03:45.743Z,17.51
2018-06-19T00:04:45.740Z,17.42
2018-06-19T00:05:45.739Z,17.53
2018-06-19T00:06:45.740Z,17.51
2018-06-19T00:07:45.737Z,17.49
2018-06-19T00:08:45.736Z,17.51
2018-06-19T00:09:45.734Z,17.45
2018-06-19T00:10:45.728Z,17.47
2018-06-19T00:11:45.726Z,17.49
2018-06-19T00:12:45.728Z,17.51
2018-06-19T00:13:45.726Z,17.53
2018-06-19T00:14:45.721Z,17.53
2018-06-19T00:15:45.717Z,17.51
2018-06-19T00:16:45.722Z,17.57
2018-06-19T00:17:45.712Z,17.55
2018-06-19T00:18:45.715Z,17.62
2018-06-19T00:19:45.711Z,17.65
2018-06-19T00:20:45.711Z,17.63
2018-06-19T00:21:45.707Z,17.62
2018-06-19T00:22:45.701Z,17.58
2018-06-19T00:23:45.699Z,17.57
2018-06-19T00:24:45.697Z,17.57
2018-06-19T00:25:45.701Z,17.62
2018-06-19T00:26:45.699Z,17.68
2018-06-19T00:27:45.696Z,17.62
2018-06-19T00:28:45.688Z,17.66
2018-06-19T00:29:45.686Z,17.60
2018-06-19T00:30:45.690Z,17.60
2018-06-19T00:31:45.690Z,17.58
2018-06-19T00:32:45.683Z,17.47
2018-06-19T00:33:45.683Z,17.53
2018-06-19T00:34:45.675Z,17.55
2018-06-19T00:35:45.671Z,17.54
2018-06-19T00:36:45.669Z,17.54
2018-06-19T00:37:45.669Z,17.51
2018-06-19T00:38:45.670Z,17.54
2018-06-19T00:39:45.667Z,17.54
2018-06-19T00:40:45.666Z,17.47
2018-06-19T00:41:45.664Z,17.49
2018-06-19T00:42:45.657Z,17.57
2018-06-19T00:43:45.655Z,17.55
2018-06-19T00:44:45.656Z,17.49
2018-06-19T00:45:45.656Z,17.46
2018-06-19T00:46:45.651Z,17.49
2018-06-19T00:47:45.644Z,17.42
2018-06-19T00:48:45.643Z,17.45
2018-06-19T00:49:45.642Z,17.54
2018-06-19T00:50:45.647Z,17.47
2018-06-19T00:51:45.639Z,17.42
2018-06-19T00:52:45.639Z,17.39
2018-06-19T00:53:45.637Z,17.36
2018-06-19T00:54:45.629Z,17.35
2018-06-19T00:55:45.626Z,17.35
2018-06-19T00:56:45.637Z,17.35
2018-06-19T00:57:45.622Z,17.36
2018-06-19T00:58:45.628Z,17.33
2018-06-19T00:59:45.660Z,17.21
2018-06-19T01:00:45.615Z,17.30
2018-06-19T01:01:45.612Z,17.22
2018-06-19T01:02:45.616Z,17.24
2018-06-19T01:03:45.612Z,17.22
2018-06-19T01:04:45.610Z,17.33
2018-06-19T01:05:45.608Z,17.28
2018-06-19T01:06:45.607Z,17.17
2018-06-19T01:07:45.598Z,17.21
2018-06-19T01:08:45.599Z,17.25
2018-06-19T01:09:45.593Z,17.24
2018-06-19T01:10:45.596Z,17.30
2018-06-19T01:11:45.598Z,17.25
2018-06-19T01:12:45.592Z,17.36
2018-06-19T01:13:45.590Z,17.35
2018-06-19T01:14:45.582Z,17.35
2018-06-19T01:15:45.581Z,17.27
2018-06-19T01:16:45.582Z,17.24
2018-06-19T01:17:45.580Z,17.36
2018-06-19T01:18:45.572Z,17.35
2018-06-19T01:19:45.571Z,17.32
2018-06-19T01:20:45.568Z,17.33
2018-06-19T01:21:45.566Z,17.38
2018-06-19T01:22:45.568Z,17.40
2018-06-19T01:23:45.564Z,17.28
2018-06-19T01:24:45.562Z,17.36
2018-06-19T01:25:45.560Z,17.30
2018-06-19T01:26:45.555Z,17.18
2018-06-19T01:27:45.551Z,17.27
2018-06-19T01:28:45.550Z,17.21
2018-06-19T01:29:45.546Z,17.18
2018-06-19T01:30:45.548Z,17.20
2018-06-19T01:31:45.549Z,17.15
2018-06-19T01:32:45.538Z,17.24
2018-06-19T01:33:45.535Z,17.12
2018-06-19T01:34:45.539Z,17.18
2018-06-19T01:35:45.535Z,17.14
2018-06-19T01:36:45.531Z,17.15
2018-06-19T01:37:45.530Z,17.10
2018-06-19T01:38:45.523Z,17.12
2018-06-19T01:39:45.524Z,17.10
2018-06-19T01:40:45.522Z,17.10
2018-06-19T01:41:45.517Z,17.12
2018-06-19T01:42:45.521Z,17.12
2018-06-19T01:43:45.516Z,17.14
2018-06-19T01:44:45.513Z,17.24
2018-06-19T01:45:45.510Z,17.10
2018-06-19T01:46:45.503Z,17.14
2018-06-19T01:47:45.499Z,17.12
2018-06-19T01:48:45.506Z,17.07
2018-06-19T01:49:45.499Z,17.06
2018-06-19T01:50:45.496Z,17.03
2018-06-19T01:51:45.489Z,17.09
2018-06-19T01:52:45.487Z,17.15
2018-06-19T01:53:45.486Z,17.07
2018-06-19T01:54:45.486Z,17.06
2018-06-19T01:55:45.486Z,17.07
2018-06-19T01:56:45.485Z,16.90
2018-06-19T01:57:45.480Z,17.00
2018-06-19T01:58:45.472Z,16.95
2018-06-19T01:59:45.468Z,16.95
2018-06-19T02:00:45.467Z,17.05
2018-06-19T02:01:45.464Z,16.99
2018-06-19T02:02:45.466Z,16.88
2018-06-19T02:03:45.465Z,16.87
2018-06-19T02:04:45.456Z,16.92
2018-06-19T02:05:45.456Z,16.87
2018-06-19T02:06:45.456Z,16.95
2018-06-19T02:07:45.453Z,16.95
2018-06-19T02:08:45.451Z,16.96
2018-06-19T02:09:45.448Z,16.85
2018-06-19T02:10:45.441Z,16.87
2018-06-19T02:11:45.442Z,16.91
2018-06-19T02:12:45.435Z,17.02
2018-06-19T02:13:45.433Z,16.85
2018-06-19T02:14:45.436Z,17.12
2018-06-19T02:15:45.432Z,17.05
2018-06-19T02:16:45.429Z,17.05
2018-06-19T02:17:45.426Z,17.12
2018-06-19T02:18:45.419Z,17.05
2018-06-19T02:19:45.416Z,17.17
2018-06-19T02:20:45.419Z,17.18
2018-06-19T02:21:45.415Z,17.22
2018-06-19T02:22:45.409Z,17.20
2018-06-19T02:23:45.405Z,17.21
2018-06-19T02:24:45.403Z,17.18
2018-06-19T02:25:45.402Z,17.17
2018-06-19T02:26:45.403Z,17.30
2018-06-19T02:27:45.400Z,17.30
2018-06-19T02:28:45.398Z,17.39
2018-06-19T02:29:45.396Z,17.32
2018-06-19T02:30:45.389Z,17.36
2018-06-19T02:31:45.386Z,17.40
2018-06-19T02:32:45.385Z,17.33
2018-06-19T02:33:45.380Z,17.36
2018-06-19T02:34:45.384Z,17.33
2018-06-19T02:35:45.385Z,17.42
2018-06-19T02:36:45.375Z,17.36
2018-06-19T02:37:45.377Z,17.35
2018-06-19T02:38:45.374Z,17.38
2018-06-19T02:39:45.371Z,17.39
2018-06-19T02:40:45.370Z,17.40
2018-06-19T02:41:45.368Z,17.42
2018-06-19T02:42:45.367Z,17.42
2018-06-19T02:43:45.357Z,17.38
2018-06-19T02:44:45.355Z,17.35
2018-06-19T02:45:45.353Z,17.39
2018-06-19T02:46:45.360Z,17.38
2018-06-19T02:47:45.356Z,17.42
2018-06-19T02:48:45.351Z,17.36
2018-06-19T02:49:45.349Z,17.39
2018-06-19T02:50:45.414Z,17.40
2018-06-19T02:51:45.338Z,17.32
2018-06-19T02:52:45.342Z,17.36
2018-06-19T02:53:45.340Z,17.40
2018-06-19T02:54:45.332Z,17.36
2018-06-19T02:55:45.329Z,17.33
2018-06-19T02:56:45.328Z,17.35
2018-06-19T02:57:45.329Z,17.38
2018-06-19T02:58:45.327Z,17.32
2018-06-19T02:59:45.324Z,17.39
2018-06-19T03:00:45.322Z,17.25
2018-06-19T03:01:45.320Z,17.25
2018-06-19T03:02:45.314Z,17.21
2018-06-19T03:03:45.313Z,17.28
2018-06-19T03:04:45.313Z,17.30
2018-06-19T03:05:45.309Z,17.33
2018-06-19T03:06:45.312Z,17.30
2018-06-19T03:07:45.306Z,17.27
2018-06-19T03:08:45.299Z,17.27
2018-06-19T03:09:45.298Z,17.25
2018-06-19T03:10:45.301Z,17.30
2018-06-19T03:11:45.296Z,17.27
2018-06-19T03:12:45.294Z,17.36
2018-06-19T03:13:45.292Z,17.33
2018-06-19T03:14:45.286Z,17.35
2018-06-19T03:15:45.283Z,17.36
2018-06-19T03:16:45.281Z,17.38
2018-06-19T03:17:45.279Z,17.22
2018-06-19T03:18:45.281Z,17.25
2018-06-19T03:19:45.279Z,17.24
2018-06-19T03:20:45.277Z,17.30
2018-06-19T03:21:45.275Z,17.35
2018-06-19T03:22:45.267Z,17.24
2018-06-19T03:23:45.264Z,17.27
2018-06-19T03:24:45.268Z,17.25
2018-06-19T03:25:45.265Z,17.17
2018-06-19T03:26:45.259Z,17.21
2018-06-19T03:27:45.256Z,17.17
2018-06-19T03:28:45.252Z,17.24
2018-06-19T03:29:45.251Z,17.18
2018-06-19T03:30:45.253Z,17.20
2018-06-19T03:31:45.251Z,17.20
2018-06-19T03:32:45.249Z,17.20
2018-06-19T03:33:45.249Z,17.22
2018-06-19T03:34:45.240Z,17.22
2018-06-19T03:35:45.237Z,17.14
2018-06-19T03:36:45.234Z,17.17
2018-06-19T03:37:45.233Z,17.22
2018-06-19T03:38:45.236Z,17.20
2018-06-19T03:39:45.233Z,17.25
2018-06-19T03:40:45.226Z,17.22
2018-06-19T03:41:45.229Z,17.38
2018-06-19T03:42:45.225Z,17.30
2018-06-19T03:43:45.225Z,17.36
2018-06-19T03:44:45.220Z,17.36
2018-06-19T03:45:45.218Z,17.32
2018-06-19T03:46:45.212Z,17.33
2018-06-19T03:47:45.208Z,17.32
2018-06-19T03:48:45.207Z,17.33
2018-06-19T03:49:45.205Z,17.32
2018-06-19T03:50:45.207Z,17.38
2018-06-19T03:51:45.205Z,17.39
2018-06-19T03:52:45.202Z,17.39
2018-06-19T03:53:45.200Z,17.40
2018-06-19T03:54:45.194Z,17.45
2018-06-19T03:55:45.193Z,17.43
2018-06-19T03:56:45.193Z,17.39
2018-06-19T03:57:45.194Z,17.49
2018-06-19T03:58:45.185Z,17.53
2018-06-19T03:59:45.182Z,17.54
2018-06-19T04:00:45.181Z,17.54
2018-06-19T04:01:45.179Z,17.53
2018-06-19T04:02:45.181Z,17.47
2018-06-19T04:03:45.178Z,17.47
2018-06-19T04:04:45.176Z,17.51
2018-06-19T04:05:45.174Z,17.49
2018-06-19T04:06:45.167Z,17.49
2018-06-19T04:07:45.167Z,17.47
2018-06-19T04:08:45.162Z,17.49
2018-06-19T04:09:45.160Z,17.49
2018-06-19T04:10:45.163Z,17.40
2018-06-19T04:11:45.160Z,17.38
2018-06-19T04:12:45.153Z,17.49
2018-06-19T04:13:45.153Z,17.53
2018-06-19T04:14:45.158Z,17.53
2018-06-19T04:15:45.151Z,17.57
2018-06-19T04:16:45.150Z,17.53
2018-06-19T04:17:45.150Z,17.57
2018-06-19T04:18:45.141Z,17.58
2018-06-19T04:19:45.139Z,17.58
2018-06-19T04:20:45.136Z,17.53
2018-06-19T04:21:45.135Z,17.66
2018-06-19T04:22:45.138Z,17.63
2018-06-19T04:23:45.136Z,17.58
2018-06-19T04:24:45.132Z,17.65
2018-06-19T04:25:45.131Z,17.57
2018-06-19T04:26:45.125Z,17.60
2018-06-19T04:27:45.122Z,17.65
2018-06-19T04:28:45.124Z,17.73
2018-06-19T04:29:45.122Z,17.68
2018-06-19T04:30:45.116Z,17.77
2018-06-19T04:31:45.115Z,17.77
2018-06-19T04:32:45.112Z,17.80
2018-06-19T04:33:45.111Z,17.73
2018-06-19T04:34:45.114Z,17.76
2018-06-19T04:35:45.111Z,17.80
2018-06-19T04:36:45.115Z,17.68
2018-06-19T04:37:45.107Z,17.71
2018-06-19T04:38:45.101Z,17.65
2018-06-19T04:39:45.098Z,17.62
2018-06-19T04:40:45.096Z,17.57
2018-06-19T04:41:45.095Z,17.60
2018-06-19T04:42:45.097Z,17.60
2018-06-19T04:43:45.094Z,17.74
2018-06-19T04:44:45.088Z,17.73
2018-06-19T04:45:45.086Z,17.70
2018-06-19T04:46:45.090Z,17.68
2018-06-19T04:47:45.086Z,17.77
2018-06-19T04:48:45.086Z,17.76
2018-06-19T04:49:45.111Z,17.80
2018-06-19T04:50:45.077Z,17.77
2018-06-19T04:51:45.087Z,17.68
2018-06-19T04:52:45.073Z,17.77
2018-06-19T04:53:45.107Z,17.74
2018-06-19T04:54:45.074Z,17.76
2018-06-19T04:55:45.071Z,17.55
2018-06-19T04:56:45.073Z,17.55
2018-06-19T04:57:45.069Z,17.66
2018-06-19T04:58:45.062Z,17.55
2018-06-19T04:59:45.059Z,17.57
2018-06-19T05:00:45.068Z,17.55
2018-06-19T05:01:45.063Z,17.55
2018-06-19T05:02:45.054Z,17.51
2018-06-19T05:03:45.088Z,17.42
2018-06-19T05:04:45.052Z,17.54
2018-06-19T05:05:45.055Z,17.55
2018-06-19T05:06:45.052Z,17.57
2018-06-19T05:07:45.048Z,17.55
2018-06-19T05:08:45.047Z,17.54
2018-06-19T05:09:45.045Z,17.53
2018-06-19T05:10:45.040Z,17.66
2018-06-19T05:11:45.040Z,17.66
2018-06-19T05:12:45.043Z,17.60
2018-06-19T05:13:45.034Z,17.60
2018-06-19T05:14:45.038Z,17.58
2018-06-19T05:15:45.035Z,17.73
2018-06-19T05:16:45.032Z,17.66
2018-06-19T05:17:45.027Z,17.68
2018-06-19T05:18:45.032Z,17.60
2018-06-19T05:19:45.028Z,17.57
2018-06-19T05:20:45.031Z,17.65
2018-06-19T05:21:45.023Z,17.60
2018-06-19T05:22:45.020Z,17.65
2018-06-19T05:23:45.016Z,17.57
2018-06-19T05:24:45.013Z,17.57
2018-06-19T05:25:45.011Z,17.74
2018-06-19T05:26:45.015Z,17.71
2018-06-19T05:27:45.013Z,17.63
2018-06-19T05:28:45.012Z,17.74
2018-06-19T05:29:45.009Z,17.73
2018-06-19T05:30:45.002Z,17.81
2018-06-19T05:31:45.001Z,17.80
2018-06-19T05:32:45.003Z,17.76
2018-06-19T05:33:45.001Z,17.83
2018-06-19T05:34:44.995Z,17.92
2018-06-19T05:35:44.992Z,17.95
2018-06-19T05:36:44.990Z,18.01
2018-06-19T05:37:44.990Z,18.01
2018-06-19T05:38:44.993Z,18.05
2018-06-19T05:39:44.989Z,18.17
2018-06-19T05:40:44.988Z,18.17
2018-06-19T05:41:44.987Z,18.25
2018-06-19T05:42:44.981Z,18.23
2018-06-19T05:43:44.979Z,18.21
2018-06-19T05:44:44.977Z,18.14
2018-06-19T05:45:44.975Z,18.11
2018-06-19T05:46:44.980Z,18.05
2018-06-19T05:47:44.976Z,18.14
2018-06-19T05:48:44.975Z,18.14
2018-06-19T05:49:44.969Z,18.17
2018-06-19T05:50:44.973Z,18.13
2018-06-19T05:51:44.970Z,18.05
2018-06-19T05:52:45.002Z,18.07
2018-06-19T05:53:44.967Z,17.98
2018-06-19T05:54:44.962Z,18.05
2018-06-19T05:55:44.959Z,18.09
2018-06-19T05:56:44.961Z,18.13
2018-06-19T05:57:44.957Z,18.19
2018-06-19T05:58:44.960Z,18.13
2018-06-19T05:59:44.959Z,18.09
2018-06-19T06:00:44.956Z,18.14
2018-06-19T06:01:44.955Z,18.23
2018-06-19T06:02:44.949Z,18.21
2018-06-19T06:03:44.948Z,18.20
2018-06-19T06:04:44.950Z,18.17
2018-06-19T06:05:45.031Z,18.10
2018-06-19T06:06:44.945Z,18.14
2018-06-19T06:07:44.942Z,18.21
2018-06-19T06:08:44.940Z,18.25
2018-06-19T06:09:44.940Z,18.25
2018-06-19T06:10:44.943Z,18.31
2018-06-19T06:11:44.942Z,18.25
2018-06-19T06:12:44.942Z,18.34
2018-06-19T06:13:44.939Z,18.31
2018-06-19T06:14:44.933Z,18.35
2018-06-19T06:15:44.932Z,18.47
2018-06-19T06:16:44.959Z,18.41
2018-06-19T06:17:44.928Z,18.49
2018-06-19T06:18:44.932Z,18.50
2018-06-19T06:19:44.930Z,18.50
2018-06-19T06:20:44.923Z,18.59
2018-06-19T06:21:44.925Z,18.53
2018-06-19T06:22:44.926Z,18.47
2018-06-19T06:23:44.925Z,18.47
2018-06-19T06:24:44.924Z,18.46
2018-06-19T06:25:44.923Z,18.49
2018-06-19T06:26:44.917Z,18.57
2018-06-19T06:27:44.914Z,18.65
2018-06-19T06:28:44.913Z,18.54
2018-06-19T06:29:44.915Z,18.64
2018-06-19T06:30:44.917Z,18.69
2018-06-19T06:31:44.915Z,18.68
2018-06-19T06:32:44.914Z,18.71
2018-06-19T06:33:44.912Z,18.69
2018-06-19T06:34:44.907Z,18.68
2018-06-19T06:35:44.905Z,18.71
2018-06-19T06:36:44.910Z,18.69
2018-06-19T06:37:44.911Z,18.66
2018-06-19T06:38:44.903Z,18.64
2018-06-19T06:39:44.901Z,18.66
2018-06-19T06:40:44.901Z,18.65
2018-06-19T06:41:44.900Z,18.68
2018-06-19T06:42:44.904Z,18.57
2018-06-19T06:43:44.903Z,18.57
2018-06-19T06:44:44.947Z,18.64
2018-06-19T06:45:44.902Z,18.60
2018-06-19T06:46:44.895Z,18.65
2018-06-19T06:47:44.895Z,18.68
2018-06-19T06:48:44.891Z,18.65
2018-06-19T06:49:44.889Z,18.66
2018-06-19T06:50:44.893Z,18.68
2018-06-19T06:51:44.890Z,18.66
2018-06-19T06:52:44.885Z,18.68
2018-06-19T06:53:44.884Z,18.74
2018-06-19T06:54:44.890Z,18.68
2018-06-19T06:55:44.886Z,18.79
2018-06-19T06:56:44.886Z,18.83
2018-06-19T06:57:44.885Z,18.94
2018-06-19T06:58:44.879Z,18.89
2018-06-19T06:59:44.878Z,18.97
2018-06-19T07:00:44.877Z,18.99
2018-06-19T07:01:44.875Z,19.10
2018-06-19T07:02:44.878Z,19.02
2018-06-19T07:03:44.876Z,19.20
2018-06-19T07:04:44.877Z,19.17
2018-06-19T07:05:44.876Z,19.16
2018-06-19T07:06:44.871Z,19.12
2018-06-19T07:07:44.934Z,19.16
2018-06-19T07:08:44.873Z,19.16
2018-06-19T07:09:44.871Z,19.20
2018-06-19T07:10:44.865Z,19.27
2018-06-19T07:11:44.865Z,19.16
2018-06-19T07:12:44.863Z,19.13
2018-06-19T07:13:44.862Z,19.20
2018-06-19T07:14:44.868Z,19.25
2018-06-19T07:15:44.935Z,19.21
2018-06-19T07:16:44.863Z,19.30
2018-06-19T07:17:44.863Z,19.35
2018-06-19T07:18:44.858Z,19.47
2018-06-19T07:19:44.857Z,19.43
2018-06-19T07:20:44.856Z,19.46
2018-06-19T07:21:44.856Z,19.47
2018-06-19T07:22:44.860Z,19.43
2018-06-19T07:23:44.866Z,19.46
2018-06-19T07:24:44.854Z,19.49
2018-06-19T07:25:44.852Z,19.55
2018-06-19T07:26:44.857Z,19.60
2018-06-19T07:27:44.858Z,19.67
2018-06-19T07:28:44.855Z,19.70
2018-06-19T07:29:44.854Z,19.68
2018-06-19T07:30:44.852Z,19.57
2018-06-19T07:31:44.848Z,19.70
2018-06-19T07:32:44.852Z,19.61
2018-06-19T07:33:44.847Z,19.55
2018-06-19T07:34:44.851Z,19.57
2018-06-19T07:35:44.850Z,19.55
2018-06-19T07:36:44.895Z,19.53
2018-06-19T07:37:44.917Z,19.49
2018-06-19T07:38:44.844Z,19.52
2018-06-19T07:39:44.842Z,19.49
2018-06-19T07:40:44.846Z,19.58
2018-06-19T07:41:44.846Z,19.58
2018-06-19T07:42:44.841Z,19.57
2018-06-19T07:43:44.872Z,19.55
2018-06-19T07:44:44.840Z,19.57
2018-06-19T07:45:44.838Z,19.70
2018-06-19T07:46:44.842Z,19.76
2018-06-19T07:47:44.841Z,19.68
2018-06-19T07:48:44.842Z,19.67
2018-06-19T07:49:44.840Z,19.60
2018-06-19T07:50:44.837Z,19.60
2018-06-19T07:51:44.837Z,19.71
2018-06-19T07:52:44.834Z,19.70
2018-06-19T07:53:44.833Z,19.67
2018-06-19T07:54:44.839Z,19.67
2018-06-19T07:55:44.837Z,19.72
2018-06-19T07:56:44.833Z,19.76
2018-06-19T07:57:44.832Z,19.75
2018-06-19T07:58:44.837Z,19.80
2018-06-19T07:59:44.835Z,19.76
2018-06-19T08:00:44.834Z,19.82
2018-06-19T08:01:44.833Z,19.78
2018-06-19T08:02:44.828Z,19.79
2018-06-19T08:03:44.826Z,19.89
2018-06-19T08:04:44.827Z,19.89
2018-06-19T08:05:44.827Z,20.00
2018-06-19T08:06:44.830Z,19.98
2018-06-19T08:07:44.830Z,20.05
2018-06-19T08:08:44.828Z,20.04
2018-06-19T08:09:44.828Z,20.05
2018-06-19T08:10:44.823Z,20.00
2018-06-19T08:11:44.822Z,20.01
2018-06-19T08:12:44.827Z,20.10
2018-06-19T08:13:44.828Z,20.19
2018-06-19T08:14:44.821Z,20.16
2018-06-19T08:15:44.820Z,20.31
2018-06-19T08:16:44.820Z,20.33
2018-06-19T08:17:44.819Z,20.33
2018-06-19T08:18:44.866Z,20.50
2018-06-19T08:19:44.824Z,20.44
2018-06-19T08:20:44.823Z,20.44
2018-06-19T08:21:44.827Z,20.53
2018-06-19T08:22:44.872Z,20.58
2018-06-19T08:23:44.817Z,20.61
2018-06-19T08:24:44.817Z,20.69
2018-06-19T08:25:44.816Z,20.72
2018-06-19T08:26:44.821Z,20.63
2018-06-19T08:27:44.820Z,20.66
2018-06-19T08:28:44.815Z,20.61
2018-06-19T08:29:44.816Z,20.73
2018-06-19T08:30:44.821Z,20.71
2018-06-19T08:31:44.819Z,20.66
2018-06-19T08:32:44.820Z,20.69
2018-06-19T08:33:44.823Z,20.69
2018-06-19T08:34:44.815Z,20.75
2018-06-19T08:35:44.815Z,20.71
2018-06-19T08:36:44.815Z,20.79
2018-06-19T08:37:44.815Z,20.76
2018-06-19T08:38:44.821Z,20.79
2018-06-19T08:39:44.820Z,20.81
2018-06-19T08:40:44.819Z,20.66
2018-06-19T08:41:44.853Z,20.58
2018-06-19T08:42:44.815Z,20.71
2018-06-19T08:43:44.815Z,20.66
2018-06-19T08:44:44.821Z,20.75
2018-06-19T08:45:44.820Z,20.64
2018-06-19T08:46:44.816Z,20.66
2018-06-19T08:47:44.816Z,20.69
2018-06-19T08:48:44.819Z,20.75
2018-06-19T08:49:44.821Z,20.76
2018-06-19T08:50:44.823Z,20.90
2018-06-19T08:51:44.821Z,20.87
2018-06-19T08:52:44.823Z,20.88
2018-06-19T08:53:44.823Z,20.93
2018-06-19T08:54:44.818Z,20.94
2018-06-19T08:55:44.817Z,21.03
2018-06-19T08:56:44.818Z,21.03
2018-06-19T08:57:44.819Z,21.03
2018-06-19T08:58:44.824Z,21.03
2018-06-19T08:59:44.823Z,21.18
2018-06-19T09:00:44.819Z,21.18
2018-06-19T09:01:44.819Z,21.13
2018-06-19T09:02:44.826Z,21.19
2018-06-19T09:03:44.824Z,21.09
2018-06-19T09:04:44.828Z,21.11
2018-06-19T09:05:44.827Z,21.06
2018-06-19T09:06:44.824Z,20.97
2018-06-19T09:07:44.823Z,20.83
2018-06-19T09:08:44.822Z,20.94
2018-06-19T09:09:44.823Z,20.97
2018-06-19T09:10:44.829Z,20.94
2018-06-19T09:11:44.831Z,21.05
2018-06-19T09:12:44.829Z,21.12
2018-06-19T09:13:44.830Z,21.03
2018-06-19T09:14:44.829Z,21.21
2018-06-19T09:15:44.828Z,21.31
2018-06-19T09:16:44.831Z,21.31
2018-06-19T09:17:44.832Z,21.33
2018-06-19T09:18:44.828Z,21.30
2018-06-19T09:19:44.829Z,21.37
2018-06-19T09:20:44.833Z,21.45
2018-06-19T09:21:44.864Z,21.59
2018-06-19T09:22:44.836Z,21.56
2018-06-19T09:23:44.837Z,21.34
2018-06-19T09:24:44.837Z,21.46
2018-06-19T09:25:44.839Z,21.61
2018-06-19T09:26:44.834Z,21.56
2018-06-19T09:27:44.835Z,21.56
2018-06-19T09:28:44.835Z,21.56
2018-06-19T09:29:44.836Z,21.71
2018-06-19T09:30:44.841Z,21.67
2018-06-19T09:31:44.842Z,21.70
2018-06-19T09:32:44.838Z,21.82
2018-06-19T09:33:44.842Z,21.82
2018-06-19T09:34:44.845Z,21.83
2018-06-19T09:35:44.848Z,21.81
2018-06-19T09:36:44.846Z,21.66
2018-06-19T09:37:44.849Z,21.71
2018-06-19T09:38:44.844Z,21.82
2018-06-19T09:39:44.846Z,21.86
2018-06-19T09:40:44.848Z,21.70
2018-06-19T09:41:44.847Z,21.73
2018-06-19T09:42:44.854Z,21.75
2018-06-19T09:43:44.853Z,21.85
2018-06-19T09:44:44.854Z,21.91
2018-06-19T09:45:44.857Z,21.96
2018-06-19T09:46:44.852Z,21.94
2018-06-19T09:47:44.853Z,22.14
2018-06-19T09:48:44.857Z,22.09
2018-06-19T09:49:44.859Z,22.19
2018-06-19T09:50:44.856Z,22.14
2018-06-19T09:51:44.856Z,22.29
2018-06-19T09:52:44.862Z,22.26
2018-06-19T09:53:44.924Z,22.27
2018-06-19T09:54:44.869Z,22.27
2018-06-19T09:55:44.867Z,22.20
2018-06-19T09:56:44.868Z,22.21
2018-06-19T09:57:44.872Z,22.19
2018-06-19T09:58:44.869Z,22.27
2018-06-19T09:59:44.867Z,22.36
2018-06-19T10:00:44.868Z,22.41
2018-06-19T10:01:44.868Z,22.48
2018-06-19T10:02:44.875Z,22.57
2018-06-19T10:03:44.876Z,22.61
2018-06-19T10:04:44.873Z,22.49
2018-06-19T10:05:44.925Z,22.44
2018-06-19T10:06:44.883Z,22.60
2018-06-19T10:07:44.881Z,22.61
2018-06-19T10:08:44.884Z,22.49
2018-06-19T10:09:44.893Z,22.57
2018-06-19T10:10:44.882Z,22.52
2018-06-19T10:11:44.885Z,22.61
2018-06-19T10:12:44.884Z,22.63
2018-06-19T10:13:44.886Z,22.56
2018-06-19T10:14:44.897Z,22.67
2018-06-19T10:15:44.895Z,22.69
2018-06-19T10:16:44.897Z,22.86
2018-06-19T10:17:44.896Z,22.82
2018-06-19T10:18:44.895Z,22.89
2018-06-19T10:19:44.900Z,22.96
2018-06-19T10:20:44.901Z,23.04
2018-06-19T10:21:44.904Z,23.03
2018-06-19T10:22:44.901Z,23.25
2018-06-19T10:23:44.903Z,23.26
2018-06-19T10:24:44.904Z,23.26
2018-06-19T10:25:44.907Z,23.39
2018-06-19T10:26:44.914Z,23.41
2018-06-19T10:27:44.914Z,23.47
2018-06-19T10:28:44.920Z,23.45
2018-06-19T10:29:44.920Z,23.44
2018-06-19T10:30:44.924Z,23.45
2018-06-19T10:31:44.917Z,23.42
2018-06-19T10:32:44.919Z,23.53
2018-06-19T10:33:44.923Z,23.56
2018-06-19T10:34:44.931Z,23.50
2018-06-19T10:35:44.931Z,23.47
2018-06-19T10:36:44.928Z,23.53
2018-06-19T10:37:44.937Z,23.60
2018-06-19T10:38:44.939Z,23.72
2018-06-19T10:39:44.939Z,23.78
2018-06-19T10:40:44.944Z,23.92
2018-06-19T10:41:44.944Z,23.96
2018-06-19T10:42:44.942Z,24.00
2018-06-19T10:43:44.945Z,24.00
2018-06-19T10:44:44.946Z,23.72
2018-06-19T10:45:44.952Z,23.82
2018-06-19T10:46:44.961Z,23.74
2018-06-19T10:47:44.958Z,23.77
2018-06-19T10:48:44.962Z,23.87
2018-06-19T10:49:44.965Z,23.94
2018-06-19T10:50:44.962Z,24.00
2018-06-19T10:51:44.964Z,23.97
2018-06-19T10:52:45.012Z,24.12
2018-06-19T10:53:44.982Z,24.19
2018-06-19T10:54:44.973Z,24.36
2018-06-19T10:55:44.974Z,24.53
2018-06-19T10:56:44.978Z,24.55
2018-06-19T10:57:44.981Z,24.55
2018-06-19T10:58:44.988Z,24.63
2018-06-19T10:59:44.991Z,24.60
2018-06-19T11:00:44.993Z,24.56
2018-06-19T11:01:44.996Z,24.59
2018-06-19T11:02:44.995Z,24.67
2018-06-19T11:03:45.003Z,24.68
2018-06-19T11:04:45.002Z,24.79
2018-06-19T11:05:45.006Z,24.86
2018-06-19T11:06:45.014Z,24.80
2018-06-19T11:07:45.016Z,24.55
2018-06-19T11:08:45.014Z,24.61
2018-06-19T11:09:45.018Z,24.70
2018-06-19T11:10:45.026Z,24.84
2018-06-19T11:11:45.031Z,25.01
2018-06-19T11:12:45.031Z,25.16
2018-06-19T11:13:45.037Z,25.31
2018-06-19T11:14:45.036Z,25.41
2018-06-19T11:15:45.038Z,25.53
2018-06-19T11:16:45.043Z,25.45
2018-06-19T11:17:45.046Z,25.57
2018-06-19T11:18:45.055Z,25.51
2018-06-19T11:19:45.057Z,25.36
2018-06-19T11:20:45.061Z,25.19
2018-06-19T11:21:45.065Z,25.14
2018-06-19T11:22:45.065Z,25.30
2018-06-19T11:23:45.071Z,25.27
2018-06-19T11:24:45.078Z,25.35
2018-06-19T11:25:45.206Z,25.26
2018-06-19T11:26:45.081Z,25.01
2018-06-19T11:27:45.084Z,25.02
2018-06-19T11:28:45.090Z,25.04
2018-06-19T11:29:45.094Z,25.17
2018-06-19T11:30:45.104Z,25.30
2018-06-19T11:31:45.106Z,25.49
2018-06-19T11:32:45.111Z,25.49
2018-06-19T11:33:45.115Z,25.22
2018-06-19T11:34:45.115Z,25.02
2018-06-19T11:35:45.126Z,25.04
2018-06-19T11:36:45.134Z,25.19
2018-06-19T11:37:45.129Z,25.17
2018-06-19T11:38:45.136Z,25.16
2018-06-19T11:39:45.140Z,25.27
2018-06-19T11:40:45.147Z,25.31
2018-06-19T11:41:45.144Z,25.35
2018-06-19T11:42:45.153Z,25.46
2018-06-19T11:43:45.156Z,25.59
2018-06-19T11:44:45.169Z,25.56
2018-06-19T11:45:45.167Z,25.67
2018-06-19T11:46:45.166Z,25.63
2018-06-19T11:47:45.169Z,25.81
2018-06-19T11:48:45.174Z,25.96
2018-06-19T11:49:45.180Z,26.03
2018-06-19T11:50:45.188Z,26.11
2018-06-19T11:51:45.190Z,26.27
2018-06-19T11:52:45.194Z,26.11
2018-06-19T11:53:45.198Z,26.32
2018-06-19T11:54:45.199Z,26.49
2018-06-19T11:55:45.202Z,26.60
2018-06-19T11:56:45.232Z,26.75
2018-06-19T11:57:45.216Z,26.86
2018-06-19T11:58:45.217Z,26.84
2018-06-19T11:59:45.223Z,26.72
2018-06-19T12:00:45.226Z,26.34
2018-06-19T12:01:45.234Z,26.38
2018-06-19T12:02:45.240Z,26.36
2018-06-19T12:03:45.244Z,26.50
2018-06-19T12:04:45.253Z,26.66
2018-06-19T12:05:45.254Z,26.68
2018-06-19T12:06:45.267Z,26.72
2018-06-19T12:07:45.257Z,26.79
2018-06-19T12:08:45.268Z,26.75
2018-06-19T12:09:45.267Z,26.79
2018-06-19T12:10:45.277Z,26.96
2018-06-19T12:11:45.281Z,26.81
2018-06-19T12:12:45.281Z,26.94
2018-06-19T12:13:45.286Z,26.96
2018-06-19T12:14:45.296Z,27.03
2018-06-19T12:15:45.301Z,27.09
2018-06-19T12:16:45.306Z,27.09
2018-06-19T12:17:45.312Z,27.01
2018-06-19T12:18:45.311Z,27.06
2018-06-19T12:19:45.316Z,26.98
2018-06-19T12:20:45.320Z,26.90
2018-06-19T12:21:45.325Z,26.83
2018-06-19T12:22:45.335Z,26.83
2018-06-19T12:23:45.387Z,26.83
2018-06-19T12:24:45.344Z,26.72
2018-06-19T12:25:45.351Z,26.65
2018-06-19T12:26:45.350Z,26.66
2018-06-19T12:27:45.355Z,26.69
2018-06-19T12:28:45.364Z,26.54
2018-06-19T12:29:45.497Z,26.47
2018-06-19T12:30:45.368Z,26.39
2018-06-19T12:31:45.372Z,26.34
2018-06-19T12:32:45.376Z,26.41
2018-06-19T12:33:45.386Z,26.50
2018-06-19T12:34:45.390Z,26.39
2018-06-19T12:35:45.393Z,26.44
2018-06-19T12:36:45.398Z,26.53
2018-06-19T12:37:45.402Z,26.50
2018-06-19T12:38:45.402Z,26.50
2018-06-19T12:39:45.409Z,26.47
2018-06-19T12:40:45.412Z,26.53
2018-06-19T12:41:45.414Z,26.69
2018-06-19T12:42:45.424Z,26.69
2018-06-19T12:43:45.427Z,26.86
2018-06-19T12:44:45.427Z,26.86
2018-06-19T12:45:45.434Z,26.78
2018-06-19T12:46:45.445Z,26.79
2018-06-19T12:47:45.488Z,26.98
2018-06-19T12:48:45.449Z,26.93
2018-06-19T12:49:45.501Z,26.97
2018-06-19T12:50:45.453Z,26.97
2018-06-19T12:51:45.457Z,27.11
2018-06-19T12:52:45.462Z,27.06